Aviation Digital Data Service (ADDS)

Output produced by METARs form (0621 UTC 30 May 2015)
found at http://aviationweather.gov/adds/metars/
 
KPBG 300528Z 3006/3106 00000KT P6SM SCT250 
     FM301100 16008KT P6SM SCT120 
     FM301400 16012G20KT P6SM BKN100 
     FM302000 20012G22KT P6SM VCSH BKN050 
     FM302300 22010KT P6SM -SHRA OVC040